sensor_id;sensor_type;location;lat;lon;timestamp;pressure;altitude;pressure_sealevel;temperature
44429;BMP180;30134;47.866;-4.222;2022-11-30T00:01:22;101934.00;;;24.60
44429;BMP180;30134;47.866;-4.222;2022-11-30T00:03:53;101934.00;;;24.60
44429;BMP180;30134;47.866;-4.222;2022-11-30T00:06:20;101931.00;;;24.60
44429;BMP180;30134;47.866;-4.222;2022-11-30T00:08:53;101932.00;;;24.60
44429;BMP180;30134;47.866;-4.222;2022-11-30T00:11:21;101937.00;;;24.60
44429;BMP180;30134;47.866;-4.222;2022-11-30T00:13:48;101929.00;;;24.60
44429;BMP180;30134;47.866;-4.222;2022-11-30T00:16:15;101942.00;;;24.60
44429;BMP180;30134;47.866;-4.222;2022-11-30T00:18:41;101934.00;;;24.60
44429;BMP180;30134;47.866;-4.222;2022-11-30T00:21:12;101931.00;;;24.60
44429;BMP180;30134;47.866;-4.222;2022-11-30T00:23:41;101929.00;;;24.60
44429;BMP180;30134;47.866;-4.222;2022-11-30T00:26:10;101922.00;;;24.60
44429;BMP180;30134;47.866;-4.222;2022-11-30T00:28:38;101921.00;;;24.60
44429;BMP180;30134;47.866;-4.222;2022-11-30T00:31:10;101917.00;;;24.60
44429;BMP180;30134;47.866;-4.222;2022-11-30T00:33:37;101920.00;;;24.70
44429;BMP180;30134;47.866;-4.222;2022-11-30T00:36:15;101920.00;;;24.70
44429;BMP180;30134;47.866;-4.222;2022-11-30T00:38:42;101912.00;;;24.70
44429;BMP180;30134;47.866;-4.222;2022-11-30T00:41:11;101915.00;;;24.60
44429;BMP180;30134;47.866;-4.222;2022-11-30T00:43:38;101907.00;;;24.70
44429;BMP180;30134;47.866;-4.222;2022-11-30T00:46:05;101911.00;;;24.70
44429;BMP180;30134;47.866;-4.222;2022-11-30T00:48:31;101912.00;;;24.70
44429;BMP180;30134;47.866;-4.222;2022-11-30T00:50:57;101903.00;;;24.70
44429;BMP180;30134;47.866;-4.222;2022-11-30T00:53:23;101909.00;;;24.70
44429;BMP180;30134;47.866;-4.222;2022-11-30T00:55:49;101902.00;;;24.70
44429;BMP180;30134;47.866;-4.222;2022-11-30T00:58:15;101902.00;;;24.70
44429;BMP180;30134;47.866;-4.222;2022-11-30T01:00:42;101897.00;;;24.70
44429;BMP180;30134;47.866;-4.222;2022-11-30T01:03:08;101900.00;;;24.70
44429;BMP180;30134;47.866;-4.222;2022-11-30T01:05:35;101893.00;;;24.70
44429;BMP180;30134;47.866;-4.222;2022-11-30T01:08:05;101889.00;;;24.70
44429;BMP180;30134;47.866;-4.222;2022-11-30T01:10:37;101889.00;;;24.70
44429;BMP180;30134;47.866;-4.222;2022-11-30T01:13:03;101884.00;;;24.70
44429;BMP180;30134;47.866;-4.222;2022-11-30T01:15:30;101880.00;;;24.70
44429;BMP180;30134;47.866;-4.222;2022-11-30T01:18:00;101887.00;;;24.70
44429;BMP180;30134;47.866;-4.222;2022-11-30T01:20:26;101887.00;;;24.70
44429;BMP180;30134;47.866;-4.222;2022-11-30T01:22:53;101889.00;;;24.70
44429;BMP180;30134;47.866;-4.222;2022-11-30T01:25:19;101892.00;;;24.70
44429;BMP180;30134;47.866;-4.222;2022-11-30T01:27:48;101890.00;;;24.70
44429;BMP180;30134;47.866;-4.222;2022-11-30T01:30:15;101893.00;;;24.70
44429;BMP180;30134;47.866;-4.222;2022-11-30T01:32:41;101889.00;;;24.70
44429;BMP180;30134;47.866;-4.222;2022-11-30T01:35:14;101886.00;;;24.70
44429;BMP180;30134;47.866;-4.222;2022-11-30T01:37:40;101891.00;;;24.70
44429;BMP180;30134;47.866;-4.222;2022-11-30T01:40:07;101887.00;;;24.70
44429;BMP180;30134;47.866;-4.222;2022-11-30T01:42:35;101892.00;;;24.70
44429;BMP180;30134;47.866;-4.222;2022-11-30T01:45:04;101888.00;;;24.70
44429;BMP180;30134;47.866;-4.222;2022-11-30T01:47:46;101892.00;;;24.70
44429;BMP180;30134;47.866;-4.222;2022-11-30T01:50:29;101887.00;;;24.70
44429;BMP180;30134;47.866;-4.222;2022-11-30T01:52:57;101892.00;;;24.70
44429;BMP180;30134;47.866;-4.222;2022-11-30T01:55:38;101895.00;;;24.70
44429;BMP180;30134;47.866;-4.222;2022-11-30T01:58:11;101890.00;;;24.70
44429;BMP180;30134;47.866;-4.222;2022-11-30T02:00:43;101890.00;;;24.70
44429;BMP180;30134;47.866;-4.222;2022-11-30T02:03:42;101900.00;;;24.70
44429;BMP180;30134;47.866;-4.222;2022-11-30T02:06:11;101900.00;;;24.70
44429;BMP180;30134;47.866;-4.222;2022-11-30T02:08:37;101899.00;;;24.70
44429;BMP180;30134;47.866;-4.222;2022-11-30T02:11:06;101896.00;;;24.70
44429;BMP180;30134;47.866;-4.222;2022-11-30T02:14:02;101899.00;;;24.70
44429;BMP180;30134;47.866;-4.222;2022-11-30T02:16:59;101905.00;;;24.70
44429;BMP180;30134;47.866;-4.222;2022-11-30T02:20:13;101898.00;;;24.70
44429;BMP180;30134;47.866;-4.222;2022-11-30T02:32:18;101900.00;;;24.70
44429;BMP180;30134;47.866;-4.222;2022-11-30T02:34:47;101892.00;;;24.70
44429;BMP180;30134;47.866;-4.222;2022-11-30T02:37:15;101899.00;;;24.70
44429;BMP180;30134;47.866;-4.222;2022-11-30T02:39:42;101900.00;;;24.70
44429;BMP180;30134;47.866;-4.222;2022-11-30T02:42:11;101899.00;;;24.70
44429;BMP180;30134;47.866;-4.222;2022-11-30T02:44:44;101895.00;;;24.70
44429;BMP180;30134;47.866;-4.222;2022-11-30T02:48:03;101903.00;;;24.70
44429;BMP180;30134;47.866;-4.222;2022-11-30T02:50:50;101919.00;;;24.70
44429;BMP180;30134;47.866;-4.222;2022-11-30T02:53:18;101912.00;;;24.70
44429;BMP180;30134;47.866;-4.222;2022-11-30T02:55:44;101913.00;;;24.70
44429;BMP180;30134;47.866;-4.222;2022-11-30T02:58:11;101911.00;;;24.70
44429;BMP180;30134;47.866;-4.222;2022-11-30T03:00:39;101907.00;;;24.70
44429;BMP180;30134;47.866;-4.222;2022-11-30T03:03:05;101916.00;;;24.70
44429;BMP180;30134;47.866;-4.222;2022-11-30T03:05:31;101918.00;;;24.70
44429;BMP180;30134;47.866;-4.222;2022-11-30T03:07:57;101904.00;;;24.80
44429;BMP180;30134;47.866;-4.222;2022-11-30T03:10:23;101903.00;;;24.70
44429;BMP180;30134;47.866;-4.222;2022-11-30T03:12:49;101911.00;;;24.70
44429;BMP180;30134;47.866;-4.222;2022-11-30T03:15:15;101908.00;;;24.80
44429;BMP180;30134;47.866;-4.222;2022-11-30T03:17:41;101911.00;;;24.70
44429;BMP180;30134;47.866;-4.222;2022-11-30T03:20:07;101907.00;;;24.70
44429;BMP180;30134;47.866;-4.222;2022-11-30T03:22:33;101912.00;;;24.70
44429;BMP180;30134;47.866;-4.222;2022-11-30T03:24:59;101906.00;;;24.80
44429;BMP180;30134;47.866;-4.222;2022-11-30T03:27:25;101908.00;;;24.80
44429;BMP180;30134;47.866;-4.222;2022-11-30T03:29:51;101904.00;;;24.80
44429;BMP180;30134;47.866;-4.222;2022-11-30T03:32:17;101911.00;;;24.80
44429;BMP180;30134;47.866;-4.222;2022-11-30T03:34:43;101912.00;;;24.80
44429;BMP180;30134;47.866;-4.222;2022-11-30T03:37:09;101915.00;;;24.80
44429;BMP180;30134;47.866;-4.222;2022-11-30T03:39:35;101911.00;;;24.80
44429;BMP180;30134;47.866;-4.222;2022-11-30T03:42:01;101908.00;;;24.80
44429;BMP180;30134;47.866;-4.222;2022-11-30T03:44:27;101907.00;;;24.80
44429;BMP180;30134;47.866;-4.222;2022-11-30T03:46:54;101907.00;;;24.80
44429;BMP180;30134;47.866;-4.222;2022-11-30T03:49:20;101910.00;;;24.80
44429;BMP180;30134;47.866;-4.222;2022-11-30T03:51:46;101909.00;;;24.80
44429;BMP180;30134;47.866;-4.222;2022-11-30T03:54:11;101902.00;;;24.80
44429;BMP180;30134;47.866;-4.222;2022-11-30T03:56:37;101906.00;;;24.80
44429;BMP180;30134;47.866;-4.222;2022-11-30T03:59:03;101904.00;;;24.80
44429;BMP180;30134;47.866;-4.222;2022-11-30T04:01:29;101903.00;;;24.70
44429;BMP180;30134;47.866;-4.222;2022-11-30T04:03:55;101906.00;;;24.80
44429;BMP180;30134;47.866;-4.222;2022-11-30T04:06:21;101898.00;;;24.80
44429;BMP180;30134;47.866;-4.222;2022-11-30T04:08:47;101905.00;;;24.80
44429;BMP180;30134;47.866;-4.222;2022-11-30T04:11:13;101906.00;;;24.80
44429;BMP180;30134;47.866;-4.222;2022-11-30T04:13:40;101918.00;;;24.80
44429;BMP180;30134;47.866;-4.222;2022-11-30T04:16:07;101907.00;;;24.80
44429;BMP180;30134;47.866;-4.222;2022-11-30T04:18:33;101907.00;;;24.80
44429;BMP180;30134;47.866;-4.222;2022-11-30T04:21:00;101908.00;;;24.80
44429;BMP180;30134;47.866;-4.222;2022-11-30T04:23:35;101907.00;;;24.80
44429;BMP180;30134;47.866;-4.222;2022-11-30T04:26:03;101906.00;;;24.80
44429;BMP180;30134;47.866;-4.222;2022-11-30T04:28:29;101919.00;;;24.80
44429;BMP180;30134;47.866;-4.222;2022-11-30T04:30:55;101914.00;;;24.80
44429;BMP180;30134;47.866;-4.222;2022-11-30T04:33:21;101914.00;;;24.80
44429;BMP180;30134;47.866;-4.222;2022-11-30T04:35:49;101923.00;;;24.80
44429;BMP180;30134;47.866;-4.222;2022-11-30T04:38:16;101926.00;;;24.80
44429;BMP180;30134;47.866;-4.222;2022-11-30T04:40:42;101930.00;;;24.80
44429;BMP180;30134;47.866;-4.222;2022-11-30T04:43:09;101918.00;;;24.80
44429;BMP180;30134;47.866;-4.222;2022-11-30T04:45:35;101925.00;;;24.80
44429;BMP180;30134;47.866;-4.222;2022-11-30T04:48:01;101932.00;;;24.80
44429;BMP180;30134;47.866;-4.222;2022-11-30T04:50:27;101925.00;;;24.80
44429;BMP180;30134;47.866;-4.222;2022-11-30T04:52:53;101938.00;;;24.80
44429;BMP180;30134;47.866;-4.222;2022-11-30T04:55:19;101941.00;;;24.80
44429;BMP180;30134;47.866;-4.222;2022-11-30T04:57:45;101942.00;;;24.80
44429;BMP180;30134;47.866;-4.222;2022-11-30T05:00:13;101942.00;;;24.80
44429;BMP180;30134;47.866;-4.222;2022-11-30T05:02:39;101940.00;;;24.80
44429;BMP180;30134;47.866;-4.222;2022-11-30T05:05:05;101945.00;;;24.80
44429;BMP180;30134;47.866;-4.222;2022-11-30T05:07:31;101943.00;;;24.80
44429;BMP180;30134;47.866;-4.222;2022-11-30T05:09:57;101937.00;;;24.80
44429;BMP180;30134;47.866;-4.222;2022-11-30T05:12:30;101941.00;;;24.80
44429;BMP180;30134;47.866;-4.222;2022-11-30T05:14:57;101948.00;;;24.80
44429;BMP180;30134;47.866;-4.222;2022-11-30T05:17:23;101946.00;;;24.80
44429;BMP180;30134;47.866;-4.222;2022-11-30T05:19:49;101951.00;;;24.80
44429;BMP180;30134;47.866;-4.222;2022-11-30T05:22:15;101952.00;;;24.80
44429;BMP180;30134;47.866;-4.222;2022-11-30T05:24:41;101953.00;;;24.80
44429;BMP180;30134;47.866;-4.222;2022-11-30T05:27:07;101956.00;;;24.80
44429;BMP180;30134;47.866;-4.222;2022-11-30T05:29:33;101954.00;;;24.80
44429;BMP180;30134;47.866;-4.222;2022-11-30T05:32:02;101946.00;;;24.80
44429;BMP180;30134;47.866;-4.222;2022-11-30T05:34:28;101953.00;;;24.80
44429;BMP180;30134;47.866;-4.222;2022-11-30T05:36:53;101953.00;;;24.80
44429;BMP180;30134;47.866;-4.222;2022-11-30T05:39:19;101953.00;;;24.80
44429;BMP180;30134;47.866;-4.222;2022-11-30T05:41:45;101955.00;;;24.80
44429;BMP180;30134;47.866;-4.222;2022-11-30T05:44:11;101954.00;;;24.80
44429;BMP180;30134;47.866;-4.222;2022-11-30T05:46:37;101955.00;;;24.80
44429;BMP180;30134;47.866;-4.222;2022-11-30T05:49:03;101951.00;;;24.80
44429;BMP180;30134;47.866;-4.222;2022-11-30T05:51:29;101953.00;;;24.80
44429;BMP180;30134;47.866;-4.222;2022-11-30T05:53:55;101953.00;;;24.80
44429;BMP180;30134;47.866;-4.222;2022-11-30T05:56:21;101945.00;;;24.80
44429;BMP180;30134;47.866;-4.222;2022-11-30T05:58:47;101953.00;;;24.80
44429;BMP180;30134;47.866;-4.222;2022-11-30T06:01:21;101952.00;;;24.80
44429;BMP180;30134;47.866;-4.222;2022-11-30T06:03:47;101951.00;;;24.80
44429;BMP180;30134;47.866;-4.222;2022-11-30T06:06:13;101953.00;;;24.80
44429;BMP180;30134;47.866;-4.222;2022-11-30T06:08:39;101960.00;;;24.80
44429;BMP180;30134;47.866;-4.222;2022-11-30T06:11:05;101953.00;;;24.80
44429;BMP180;30134;47.866;-4.222;2022-11-30T06:13:31;101953.00;;;24.80
44429;BMP180;30134;47.866;-4.222;2022-11-30T06:16:03;101957.00;;;24.80
44429;BMP180;30134;47.866;-4.222;2022-11-30T06:18:30;101949.00;;;24.80
44429;BMP180;30134;47.866;-4.222;2022-11-30T06:21:14;101961.00;;;24.80
44429;BMP180;30134;47.866;-4.222;2022-11-30T06:23:40;101962.00;;;24.80
44429;BMP180;30134;47.866;-4.222;2022-11-30T06:26:08;101959.00;;;24.80
44429;BMP180;30134;47.866;-4.222;2022-11-30T06:28:34;101965.00;;;24.80
44429;BMP180;30134;47.866;-4.222;2022-11-30T06:31:02;101957.00;;;24.80
44429;BMP180;30134;47.866;-4.222;2022-11-30T06:33:28;101959.00;;;24.80
44429;BMP180;30134;47.866;-4.222;2022-11-30T06:35:54;101959.00;;;24.80
44429;BMP180;30134;47.866;-4.222;2022-11-30T06:38:20;101958.00;;;24.80
44429;BMP180;30134;47.866;-4.222;2022-11-30T06:40:46;101958.00;;;24.80
44429;BMP180;30134;47.866;-4.222;2022-11-30T06:43:12;101962.00;;;24.80
44429;BMP180;30134;47.866;-4.222;2022-11-30T06:45:38;101960.00;;;24.80
44429;BMP180;30134;47.866;-4.222;2022-11-30T06:48:04;101964.00;;;24.80
44429;BMP180;30134;47.866;-4.222;2022-11-30T06:50:30;101954.00;;;24.80
44429;BMP180;30134;47.866;-4.222;2022-11-30T06:52:56;101963.00;;;24.80
44429;BMP180;30134;47.866;-4.222;2022-11-30T06:55:22;101964.00;;;24.80
44429;BMP180;30134;47.866;-4.222;2022-11-30T06:57:48;101961.00;;;24.80
44429;BMP180;30134;47.866;-4.222;2022-11-30T07:00:15;101970.00;;;24.80
44429;BMP180;30134;47.866;-4.222;2022-11-30T07:02:41;101970.00;;;24.80
44429;BMP180;30134;47.866;-4.222;2022-11-30T07:05:07;101966.00;;;24.80
44429;BMP180;30134;47.866;-4.222;2022-11-30T07:07:33;101973.00;;;24.80
44429;BMP180;30134;47.866;-4.222;2022-11-30T07:09:59;101969.00;;;24.80
44429;BMP180;30134;47.866;-4.222;2022-11-30T07:12:25;101975.00;;;24.80
44429;BMP180;30134;47.866;-4.222;2022-11-30T07:14:51;101975.00;;;24.80
44429;BMP180;30134;47.866;-4.222;2022-11-30T07:17:20;101973.00;;;24.80
44429;BMP180;30134;47.866;-4.222;2022-11-30T07:19:45;101971.00;;;24.80
44429;BMP180;30134;47.866;-4.222;2022-11-30T07:22:12;101981.00;;;24.80
44429;BMP180;30134;47.866;-4.222;2022-11-30T07:24:37;101988.00;;;24.80
44429;BMP180;30134;47.866;-4.222;2022-11-30T07:27:22;101988.00;;;24.80
44429;BMP180;30134;47.866;-4.222;2022-11-30T07:29:48;101994.00;;;24.80
44429;BMP180;30134;47.866;-4.222;2022-11-30T07:32:16;101997.00;;;24.80
44429;BMP180;30134;47.866;-4.222;2022-11-30T07:34:42;101996.00;;;24.80
44429;BMP180;30134;47.866;-4.222;2022-11-30T07:37:08;102008.00;;;24.80
44429;BMP180;30134;47.866;-4.222;2022-11-30T07:39:34;102009.00;;;24.80
44429;BMP180;30134;47.866;-4.222;2022-11-30T07:41:59;102004.00;;;24.80
44429;BMP180;30134;47.866;-4.222;2022-11-30T07:44:26;102013.00;;;24.80
44429;BMP180;30134;47.866;-4.222;2022-11-30T07:46:52;102015.00;;;24.80
44429;BMP180;30134;47.866;-4.222;2022-11-30T07:49:18;102024.00;;;24.80
44429;BMP180;30134;47.866;-4.222;2022-11-30T07:51:44;102025.00;;;24.80
44429;BMP180;30134;47.866;-4.222;2022-11-30T07:54:10;102025.00;;;24.80
44429;BMP180;30134;47.866;-4.222;2022-11-30T07:56:35;102026.00;;;24.80
44429;BMP180;30134;47.866;-4.222;2022-11-30T07:59:02;102034.00;;;24.80
44429;BMP180;30134;47.866;-4.222;2022-11-30T08:01:30;102035.00;;;24.80
44429;BMP180;30134;47.866;-4.222;2022-11-30T08:03:57;102040.00;;;24.80
44429;BMP180;30134;47.866;-4.222;2022-11-30T08:06:25;102044.00;;;24.80
44429;BMP180;30134;47.866;-4.222;2022-11-30T08:08:53;102042.00;;;24.80
44429;BMP180;30134;47.866;-4.222;2022-11-30T08:11:21;102040.00;;;24.80
44429;BMP180;30134;47.866;-4.222;2022-11-30T08:13:48;102043.00;;;24.80
44429;BMP180;30134;47.866;-4.222;2022-11-30T08:16:16;102047.00;;;24.80
44429;BMP180;30134;47.866;-4.222;2022-11-30T08:18:42;102051.00;;;24.80
44429;BMP180;30134;47.866;-4.222;2022-11-30T08:21:10;102054.00;;;24.80
44429;BMP180;30134;47.866;-4.222;2022-11-30T08:23:38;102061.00;;;24.80
44429;BMP180;30134;47.866;-4.222;2022-11-30T08:26:06;102061.00;;;24.80
44429;BMP180;30134;47.866;-4.222;2022-11-30T08:28:33;102060.00;;;24.80
44429;BMP180;30134;47.866;-4.222;2022-11-30T08:31:07;102060.00;;;24.80
44429;BMP180;30134;47.866;-4.222;2022-11-30T08:33:34;102056.00;;;24.80
44429;BMP180;30134;47.866;-4.222;2022-11-30T08:36:09;102066.00;;;24.80
44429;BMP180;30134;47.866;-4.222;2022-11-30T08:38:35;102069.00;;;24.80
44429;BMP180;30134;47.866;-4.222;2022-11-30T08:41:02;102072.00;;;24.80
44429;BMP180;30134;47.866;-4.222;2022-11-30T08:43:29;102071.00;;;24.80
44429;BMP180;30134;47.866;-4.222;2022-11-30T08:45:55;102070.00;;;24.80
44429;BMP180;30134;47.866;-4.222;2022-11-30T08:48:21;102072.00;;;24.80
44429;BMP180;30134;47.866;-4.222;2022-11-30T08:50:47;102074.00;;;24.80
44429;BMP180;30134;47.866;-4.222;2022-11-30T08:53:13;102076.00;;;24.80
44429;BMP180;30134;47.866;-4.222;2022-11-30T08:55:39;102087.00;;;24.80
44429;BMP180;30134;47.866;-4.222;2022-11-30T08:58:05;102088.00;;;24.80
44429;BMP180;30134;47.866;-4.222;2022-11-30T09:00:31;102087.00;;;24.80
44429;BMP180;30134;47.866;-4.222;2022-11-30T09:02:57;102083.00;;;24.80
44429;BMP180;30134;47.866;-4.222;2022-11-30T09:05:23;102092.00;;;24.80
44429;BMP180;30134;47.866;-4.222;2022-11-30T09:07:49;102093.00;;;24.80
44429;BMP180;30134;47.866;-4.222;2022-11-30T09:10:15;102095.00;;;24.70
44429;BMP180;30134;47.866;-4.222;2022-11-30T09:12:41;102095.00;;;24.80
44429;BMP180;30134;47.866;-4.222;2022-11-30T09:15:07;102089.00;;;24.70
44429;BMP180;30134;47.866;-4.222;2022-11-30T09:17:37;102093.00;;;24.70
44429;BMP180;30134;47.866;-4.222;2022-11-30T09:20:03;102090.00;;;24.70
44429;BMP180;30134;47.866;-4.222;2022-11-30T09:22:29;102093.00;;;24.70
44429;BMP180;30134;47.866;-4.222;2022-11-30T09:24:55;102100.00;;;24.70
44429;BMP180;30134;47.866;-4.222;2022-11-30T09:27:21;102105.00;;;24.70
44429;BMP180;30134;47.866;-4.222;2022-11-30T09:29:48;102102.00;;;24.70
44429;BMP180;30134;47.866;-4.222;2022-11-30T09:32:13;102109.00;;;24.80
44429;BMP180;30134;47.866;-4.222;2022-11-30T09:34:39;102109.00;;;24.70
44429;BMP180;30134;47.866;-4.222;2022-11-30T09:37:05;102116.00;;;24.70
44429;BMP180;30134;47.866;-4.222;2022-11-30T09:39:31;102114.00;;;24.70
44429;BMP180;30134;47.866;-4.222;2022-11-30T09:42:13;102117.00;;;24.70
44429;BMP180;30134;47.866;-4.222;2022-11-30T09:44:52;102121.00;;;24.70
44429;BMP180;30134;47.866;-4.222;2022-11-30T09:50:13;102122.00;;;24.70
44429;BMP180;30134;47.866;-4.222;2022-11-30T09:52:42;102133.00;;;24.70
44429;BMP180;30134;47.866;-4.222;2022-11-30T09:55:10;102133.00;;;24.70
44429;BMP180;30134;47.866;-4.222;2022-11-30T09:57:46;102146.00;;;24.70
44429;BMP180;30134;47.866;-4.222;2022-11-30T10:00:19;102131.00;;;24.70
44429;BMP180;30134;47.866;-4.222;2022-11-30T10:02:48;102141.00;;;24.70
44429;BMP180;30134;47.866;-4.222;2022-11-30T10:05:24;102143.00;;;24.70
44429;BMP180;30134;47.866;-4.222;2022-11-30T10:16:22;102150.00;;;24.70
44429;BMP180;30134;47.866;-4.222;2022-11-30T10:18:59;102149.00;;;24.70
44429;BMP180;30134;47.866;-4.222;2022-11-30T10:21:49;102155.00;;;24.70
44429;BMP180;30134;47.866;-4.222;2022-11-30T10:26:54;102168.00;;;24.70
44429;BMP180;30134;47.866;-4.222;2022-11-30T10:29:30;102171.00;;;24.80
44429;BMP180;30134;47.866;-4.222;2022-11-30T10:31:59;102161.00;;;24.70
44429;BMP180;30134;47.866;-4.222;2022-11-30T10:34:33;102165.00;;;24.70
44429;BMP180;30134;47.866;-4.222;2022-11-30T10:37:14;102170.00;;;24.80
44429;BMP180;30134;47.866;-4.222;2022-11-30T10:42:30;102176.00;;;24.80
44429;BMP180;30134;47.866;-4.222;2022-11-30T10:45:09;102177.00;;;24.80
44429;BMP180;30134;47.866;-4.222;2022-11-30T10:47:39;102185.00;;;24.80
44429;BMP180;30134;47.866;-4.222;2022-11-30T10:50:09;102175.00;;;24.80
44429;BMP180;30134;47.866;-4.222;2022-11-30T10:52:43;102180.00;;;24.80
44429;BMP180;30134;47.866;-4.222;2022-11-30T10:55:26;102176.00;;;24.80
44429;BMP180;30134;47.866;-4.222;2022-11-30T10:57:56;102177.00;;;24.80
44429;BMP180;30134;47.866;-4.222;2022-11-30T11:00:24;102181.00;;;24.80
44429;BMP180;30134;47.866;-4.222;2022-11-30T11:02:51;102175.00;;;24.80
44429;BMP180;30134;47.866;-4.222;2022-11-30T11:05:28;102177.00;;;24.80
44429;BMP180;30134;47.866;-4.222;2022-11-30T11:08:02;102177.00;;;24.80
44429;BMP180;30134;47.866;-4.222;2022-11-30T11:12:58;102167.00;;;24.80
44429;BMP180;30134;47.866;-4.222;2022-11-30T11:15:30;102173.00;;;24.80
44429;BMP180;30134;47.866;-4.222;2022-11-30T11:18:22;102170.00;;;24.80
44429;BMP180;30134;47.866;-4.222;2022-11-30T11:23:38;102168.00;;;24.80
44429;BMP180;30134;47.866;-4.222;2022-11-30T11:26:06;102165.00;;;24.70
44429;BMP180;30134;47.866;-4.222;2022-11-30T11:28:35;102167.00;;;24.70
44429;BMP180;30134;47.866;-4.222;2022-11-30T11:31:15;102167.00;;;24.70
44429;BMP180;30134;47.866;-4.222;2022-11-30T11:33:49;102159.00;;;24.70
44429;BMP180;30134;47.866;-4.222;2022-11-30T11:36:23;102161.00;;;24.70
44429;BMP180;30134;47.866;-4.222;2022-11-30T11:38:49;102155.00;;;24.70
44429;BMP180;30134;47.866;-4.222;2022-11-30T11:41:36;102165.00;;;24.70
44429;BMP180;30134;47.866;-4.222;2022-11-30T11:46:37;102145.00;;;24.70
44429;BMP180;30134;47.866;-4.222;2022-11-30T11:49:17;102147.00;;;24.80
44429;BMP180;30134;47.866;-4.222;2022-11-30T11:51:45;102151.00;;;24.80
44429;BMP180;30134;47.866;-4.222;2022-11-30T11:57:18;102160.00;;;24.80
44429;BMP180;30134;47.866;-4.222;2022-11-30T12:00:05;102160.00;;;24.80
44429;BMP180;30134;47.866;-4.222;2022-11-30T12:02:57;102145.00;;;24.80
44429;BMP180;30134;47.866;-4.222;2022-11-30T12:06:24;102152.00;;;24.80
44429;BMP180;30134;47.866;-4.222;2022-11-30T12:08:49;102152.00;;;24.80
44429;BMP180;30134;47.866;-4.222;2022-11-30T12:11:19;102147.00;;;24.80
44429;BMP180;30134;47.866;-4.222;2022-11-30T12:13:46;102156.00;;;24.80
44429;BMP180;30134;47.866;-4.222;2022-11-30T12:25:17;102149.00;;;24.80
44429;BMP180;30134;47.866;-4.222;2022-11-30T12:41:48;102150.00;;;24.80
44429;BMP180;30134;47.866;-4.222;2022-11-30T12:47:22;102153.00;;;24.80
44429;BMP180;30134;47.866;-4.222;2022-11-30T12:55:28;102165.00;;;24.80
44429;BMP180;30134;47.866;-4.222;2022-11-30T13:06:39;102162.00;;;24.80
44429;BMP180;30134;47.866;-4.222;2022-11-30T13:09:29;102162.00;;;24.80
44429;BMP180;30134;47.866;-4.222;2022-11-30T13:12:06;102162.00;;;24.80
44429;BMP180;30134;47.866;-4.222;2022-11-30T13:14:35;102162.00;;;24.80
44429;BMP180;30134;47.866;-4.222;2022-11-30T13:17:03;102160.00;;;24.80
44429;BMP180;30134;47.866;-4.222;2022-11-30T13:20:24;102158.00;;;24.80
44429;BMP180;30134;47.866;-4.222;2022-11-30T13:22:52;102152.00;;;24.80
44429;BMP180;30134;47.866;-4.222;2022-11-30T13:25:50;102153.00;;;24.80
44429;BMP180;30134;47.866;-4.222;2022-11-30T13:36:04;102154.00;;;24.80
44429;BMP180;30134;47.866;-4.222;2022-11-30T13:38:30;102155.00;;;24.80
44429;BMP180;30134;47.866;-4.222;2022-11-30T13:41:01;102144.00;;;24.80
44429;BMP180;30134;47.866;-4.222;2022-11-30T13:43:29;102151.00;;;24.80
44429;BMP180;30134;47.866;-4.222;2022-11-30T13:46:14;102151.00;;;24.80
44429;BMP180;30134;47.866;-4.222;2022-11-30T13:48:43;102153.00;;;24.80
44429;BMP180;30134;47.866;-4.222;2022-11-30T13:51:09;102157.00;;;24.80
44429;BMP180;30134;47.866;-4.222;2022-11-30T13:53:36;102159.00;;;24.80
44429;BMP180;30134;47.866;-4.222;2022-11-30T14:01:47;102153.00;;;24.80
44429;BMP180;30134;47.866;-4.222;2022-11-30T14:06:49;102149.00;;;24.70
44429;BMP180;30134;47.866;-4.222;2022-11-30T14:12:35;102150.00;;;24.70
44429;BMP180;30134;47.866;-4.222;2022-11-30T14:17:56;102147.00;;;24.70
44429;BMP180;30134;47.866;-4.222;2022-11-30T14:20:22;102146.00;;;24.70
44429;BMP180;30134;47.866;-4.222;2022-11-30T14:22:49;102148.00;;;24.70
44429;BMP180;30134;47.866;-4.222;2022-11-30T14:25:17;102147.00;;;24.70
44429;BMP180;30134;47.866;-4.222;2022-11-30T14:27:44;102145.00;;;24.70
44429;BMP180;30134;47.866;-4.222;2022-11-30T14:30:19;102146.00;;;24.70
44429;BMP180;30134;47.866;-4.222;2022-11-30T14:33:05;102147.00;;;24.70
44429;BMP180;30134;47.866;-4.222;2022-11-30T14:35:35;102143.00;;;24.70
44429;BMP180;30134;47.866;-4.222;2022-11-30T14:38:23;102151.00;;;24.70
44429;BMP180;30134;47.866;-4.222;2022-11-30T14:40:51;102146.00;;;24.70
44429;BMP180;30134;47.866;-4.222;2022-11-30T14:43:58;102144.00;;;24.70
44429;BMP180;30134;47.866;-4.222;2022-11-30T14:46:24;102151.00;;;24.70
44429;BMP180;30134;47.866;-4.222;2022-11-30T14:49:23;102145.00;;;24.70
44429;BMP180;30134;47.866;-4.222;2022-11-30T14:51:59;102144.00;;;24.70
44429;BMP180;30134;47.866;-4.222;2022-11-30T14:54:40;102144.00;;;24.70
44429;BMP180;30134;47.866;-4.222;2022-11-30T14:59:58;102145.00;;;24.70
44429;BMP180;30134;47.866;-4.222;2022-11-30T15:02:32;102142.00;;;24.70
44429;BMP180;30134;47.866;-4.222;2022-11-30T15:05:02;102145.00;;;24.70
44429;BMP180;30134;47.866;-4.222;2022-11-30T15:07:29;102147.00;;;24.70
44429;BMP180;30134;47.866;-4.222;2022-11-30T15:10:06;102152.00;;;24.70
44429;BMP180;30134;47.866;-4.222;2022-11-30T15:12:33;102153.00;;;24.70
44429;BMP180;30134;47.866;-4.222;2022-11-30T15:15:20;102156.00;;;24.70
44429;BMP180;30134;47.866;-4.222;2022-11-30T15:17:54;102163.00;;;24.70
44429;BMP180;30134;47.866;-4.222;2022-11-30T15:20:26;102165.00;;;24.70
44429;BMP180;30134;47.866;-4.222;2022-11-30T15:22:58;102172.00;;;24.70
44429;BMP180;30134;47.866;-4.222;2022-11-30T15:25:31;102170.00;;;24.70
44429;BMP180;30134;47.866;-4.222;2022-11-30T15:27:58;102158.00;;;24.70
44429;BMP180;30134;47.866;-4.222;2022-11-30T15:30:25;102164.00;;;24.80
44429;BMP180;30134;47.866;-4.222;2022-11-30T15:32:51;102159.00;;;24.80
44429;BMP180;30134;47.866;-4.222;2022-11-30T15:35:22;102161.00;;;24.80
44429;BMP180;30134;47.866;-4.222;2022-11-30T15:37:49;102166.00;;;24.80
44429;BMP180;30134;47.866;-4.222;2022-11-30T15:40:32;102170.00;;;24.80
44429;BMP180;30134;47.866;-4.222;2022-11-30T15:42:59;102177.00;;;24.80